createdAt,value
2023-04-01T00:01:25.353Z,99097.16
2023-04-01T00:03:51.996Z,99098.25
2023-04-01T00:06:19.649Z,99108.94
2023-04-01T00:08:46.801Z,99111.41
2023-04-01T00:11:13.704Z,99112.53
2023-04-01T00:13:40.271Z,99113.09
2023-04-01T00:16:17.910Z,99113.84
2023-04-01T00:18:48.095Z,99118.22
2023-04-01T00:21:14.943Z,99108.94
2023-04-01T00:23:41.566Z,99116.59
2023-04-01T00:26:08.254Z,99108.66
2023-04-01T00:28:35.654Z,99116.59
2023-04-01T00:31:09.409Z,99115.69
2023-04-01T00:33:36.632Z,99119.16
2023-04-01T00:36:18.069Z,99123.22
2023-04-01T00:38:44.935Z,99117.28
2023-04-01T00:41:16.708Z,99116.78
2023-04-01T00:43:45.507Z,99121.16
2023-04-01T00:46:12.179Z,99130.97
2023-04-01T00:48:48.075Z,99129.34
2023-04-01T00:51:28.636Z,99132.31
2023-04-01T00:53:57.383Z,99141.44
2023-04-01T00:56:28.651Z,99143.53
2023-04-01T00:59:00.557Z,99142.44
2023-04-01T01:01:27.207Z,99145.25
2023-04-01T01:03:53.968Z,99139.97
2023-04-01T01:06:48.453Z,99142.69
2023-04-01T01:09:29.105Z,99140.34
2023-04-01T01:12:19.890Z,99154.50
2023-04-01T01:14:57.573Z,99156.16
2023-04-01T01:17:41.090Z,99145.53
2023-04-01T01:20:15.691Z,99148.28
2023-04-01T01:23:16.270Z,99154.47
2023-04-01T01:26:01.439Z,99147.94
2023-04-01T01:28:48.179Z,99150.16
2023-04-01T01:31:25.926Z,99158.06
2023-04-01T01:34:05.185Z,99152.84
2023-04-01T01:36:38.029Z,99158.06
2023-04-01T01:39:10.336Z,99155.09
2023-04-01T01:41:40.303Z,99156.50
2023-04-01T01:44:09.290Z,99161.94
2023-04-01T01:46:38.947Z,99168.19
2023-04-01T01:49:07.421Z,99169.31
2023-04-01T01:51:35.189Z,99170.69
2023-04-01T01:54:03.916Z,99169.34
2023-04-01T01:56:32.820Z,99169.59
2023-04-01T01:59:04.312Z,99175.31
2023-04-01T02:01:34.599Z,99180.78
2023-04-01T02:04:11.996Z,99187.38
2023-04-01T02:06:42.978Z,99185.75
2023-04-01T02:09:12.115Z,99186.31
2023-04-01T02:11:51.852Z,99182.78
2023-04-01T02:14:26.473Z,99179.81
2023-04-01T02:17:14.189Z,99194.31
2023-04-01T02:19:48.871Z,99187.81
2023-04-01T02:22:21.030Z,99190.03
2023-04-01T02:24:50.869Z,99195.78
2023-04-01T02:27:17.499Z,99198.50
2023-04-01T02:29:44.147Z,99195.25
2023-04-01T02:32:11.193Z,99190.38
2023-04-01T02:34:38.460Z,99205.69
2023-04-01T02:37:05.666Z,99197.50
2023-04-01T02:39:32.296Z,99193.41
2023-04-01T02:41:58.952Z,99211.19
2023-04-01T02:44:26.677Z,99192.66
2023-04-01T02:46:54.019Z,99193.19
2023-04-01T02:49:20.722Z,99195.66
2023-04-01T02:51:47.366Z,99210.94
2023-04-01T02:54:14.422Z,99205.75
2023-04-01T02:56:41.675Z,99199.19
2023-04-01T02:59:08.259Z,99213.94
2023-04-01T03:01:34.882Z,99218.31
2023-04-01T03:04:01.848Z,99215.59
2023-04-01T03:06:28.571Z,99207.66
2023-04-01T03:08:55.178Z,99216.16
2023-04-01T03:11:22.176Z,99212.31
2023-04-01T03:13:49.673Z,99207.41
2023-04-01T03:16:16.344Z,99218.31
2023-04-01T03:18:42.865Z,99215.88
2023-04-01T03:21:24.100Z,99219.38
2023-04-01T03:23:50.985Z,99228.69
2023-04-01T03:26:17.741Z,99230.31
2023-04-01T03:28:44.304Z,99230.91
2023-04-01T03:31:11.308Z,99237.44
2023-04-01T03:33:44.282Z,99227.84
2023-04-01T03:36:12.602Z,99231.41
2023-04-01T03:38:41.223Z,99230.91
2023-04-01T03:41:08.347Z,99230.91
2023-04-01T03:43:34.964Z,99245.41
2023-04-01T03:46:01.491Z,99239.69
2023-04-01T03:48:29.466Z,99235.34
2023-04-01T03:50:56.118Z,99242.16
2023-04-01T03:53:24.128Z,99256.06
2023-04-01T03:55:56.600Z,99239.69
2023-04-01T03:58:23.098Z,99261.84
2023-04-01T04:00:50.841Z,99251.19
2023-04-01T04:03:17.533Z,99249.28
2023-04-01T04:05:49.132Z,99252.00
2023-04-01T04:08:17.980Z,99259.94
2023-04-01T04:10:45.363Z,99263.75
2023-04-01T04:13:11.903Z,99253.69
2023-04-01T04:15:45.392Z,99268.72
2023-04-01T04:18:11.974Z,99264.34
2023-04-01T04:20:46.553Z,99270.38
2023-04-01T04:23:13.234Z,99264.66
2023-04-01T04:25:41.175Z,99273.41
2023-04-01T04:28:07.835Z,99278.31
2023-04-01T04:30:35.018Z,99277.50
2023-04-01T04:33:02.657Z,99279.69
2023-04-01T04:35:29.312Z,99285.69
2023-04-01T04:37:55.921Z,99285.16
2023-04-01T04:40:22.698Z,99278.63
2023-04-01T04:42:49.275Z,99293.88
2023-04-01T04:45:16.698Z,99283.25
2023-04-01T04:47:52.115Z,99287.34
2023-04-01T04:50:18.741Z,99293.88
2023-04-01T04:52:45.764Z,99297.69
2023-04-01T04:55:12.369Z,99303.69
2023-04-01T04:57:40.187Z,99296.59
2023-04-01T05:00:07.235Z,99303.44
2023-04-01T05:02:56.967Z,99308.91
2023-04-01T05:05:24.102Z,99328.28
2023-04-01T05:07:50.695Z,99329.66
2023-04-01T05:10:17.421Z,99320.66
2023-04-01T05:12:44.716Z,99330.50
2023-04-01T05:15:16.110Z,99335.94
2023-04-01T05:17:42.927Z,99328.03
2023-04-01T05:20:12.627Z,99331.06
2023-04-01T05:22:39.347Z,99342.22
2023-04-01T05:25:06.425Z,99352.03
2023-04-01T05:27:33.012Z,99341.94
2023-04-01T05:30:00.563Z,99349.88
2023-04-01T05:32:50.381Z,99351.50
2023-04-01T05:35:17.612Z,99354.50
2023-04-01T05:37:44.342Z,99353.16
2023-04-01T05:40:11.479Z,99358.34
2023-04-01T05:42:38.531Z,99363.50
2023-04-01T05:45:05.875Z,99367.06
2023-04-01T05:47:52.801Z,99376.34
2023-04-01T05:50:19.950Z,99374.16
2023-04-01T05:52:46.589Z,99385.09
2023-04-01T05:55:13.371Z,99382.88
2023-04-01T05:57:40.232Z,99388.88
2023-04-01T06:00:07.631Z,99393.50
2023-04-01T06:02:39.303Z,99397.31
2023-04-01T06:05:18.821Z,99396.50
2023-04-01T06:07:45.568Z,99412.91
2023-04-01T06:10:20.640Z,99410.16
2023-04-01T06:13:06.494Z,99417.53
2023-04-01T06:16:01.004Z,99422.97
2023-04-01T06:19:01.356Z,99434.47
2023-04-01T06:21:49.430Z,99433.34
2023-04-01T06:24:37.161Z,99435.28
2023-04-01T06:27:42.407Z,99444.84
2023-04-01T06:30:42.040Z,99441.81
2023-04-01T06:33:47.482Z,99451.41
2023-04-01T06:36:38.950Z,99453.84
2023-04-01T06:39:30.522Z,99453.03
2023-04-01T06:42:27.166Z,99448.69
2023-04-01T06:45:21.508Z,99460.13
2023-04-01T06:48:45.058Z,99466.41
2023-04-01T06:51:46.365Z,99471.31
2023-04-01T06:54:40.338Z,99468.59
2023-04-01T06:57:23.824Z,99473.53
2023-04-01T06:59:52.779Z,99477.31
2023-04-01T07:02:31.133Z,99482.28
2023-04-01T07:04:59.242Z,99476.78
2023-04-01T07:07:47.393Z,99495.91
2023-04-01T07:10:20.862Z,99496.47
2023-04-01T07:13:11.586Z,99491.56
2023-04-01T07:16:13.904Z,99503.00
2023-04-01T07:18:45.272Z,99509.53
2023-04-01T07:21:27.698Z,99509.53
2023-04-01T07:24:02.153Z,99514.19
2023-04-01T07:26:38.894Z,99533.59
2023-04-01T07:29:14.714Z,99522.69
2023-04-01T07:31:59.115Z,99528.94
2023-04-01T07:34:29.341Z,99534.13
2023-04-01T07:37:16.186Z,99533.56
2023-04-01T07:40:02.066Z,99530.88
2023-04-01T07:42:51.681Z,99545.06
2023-04-01T07:46:00.064Z,99543.38
2023-04-01T07:48:44.834Z,99539.31
2023-04-01T07:51:20.614Z,99560.91
2023-04-01T07:53:59.391Z,99552.72
2023-04-01T07:56:41.853Z,99563.34
2023-04-01T07:59:40.989Z,99561.69
2023-04-01T08:02:39.979Z,99564.72
2023-04-01T08:05:41.583Z,99563.59
2023-04-01T08:08:37.156Z,99582.75
2023-04-01T08:11:51.592Z,99576.16
2023-04-01T08:15:11.082Z,99582.75
2023-04-01T08:18:29.558Z,99595.84
2023-04-01T08:21:00.760Z,99607.91
2023-04-01T08:23:49.547Z,99597.50
2023-04-01T08:26:42.186Z,99604.59
2023-04-01T08:29:21.961Z,99609.25
2023-04-01T08:31:48.529Z,99609.81
2023-04-01T08:34:35.556Z,99621.28
2023-04-01T08:37:11.382Z,99620.47
2023-04-01T08:39:43.690Z,99621.31
2023-04-01T08:42:26.240Z,99622.09
2023-04-01T08:45:43.760Z,99622.91
2023-04-01T08:48:45.102Z,99640.97
2023-04-01T08:51:43.434Z,99645.63
2023-04-01T08:54:34.867Z,99642.88
2023-04-01T08:57:41.226Z,99644.78
2023-04-01T09:00:39.745Z,99645.63
2023-04-01T09:03:35.177Z,99650.00
2023-04-01T09:06:27.719Z,99656.28
2023-04-01T09:09:18.359Z,99683.06
2023-04-01T09:12:16.855Z,99674.63
2023-04-01T09:15:15.274Z,99683.63
2023-04-01T09:18:03.415Z,99685.53
2023-04-01T09:21:01.121Z,99686.88
2023-04-01T09:24:00.758Z,99689.63
2023-04-01T09:26:52.346Z,99692.38
2023-04-01T09:29:39.521Z,99687.19
2023-04-01T09:32:38.028Z,99694.56
2023-04-01T09:35:38.966Z,99696.72
2023-04-01T09:38:31.116Z,99699.75
2023-04-01T09:41:06.670Z,99701.66
2023-04-01T09:44:02.672Z,99700.28
2023-04-01T09:46:50.053Z,99704.13
2023-04-01T09:49:25.060Z,99712.84
2023-04-01T09:52:06.819Z,99715.59
2023-04-01T09:54:37.396Z,99717.78
2023-04-01T09:57:21.347Z,99710.94
2023-04-01T10:00:19.094Z,99712.03
2023-04-01T10:03:28.480Z,99722.16
2023-04-01T10:06:10.147Z,99726.25
2023-04-01T10:09:21.904Z,99722.72
2023-04-01T10:12:09.673Z,99728.47
2023-04-01T10:15:19.801Z,99736.66
2023-04-01T10:18:06.062Z,99736.38
2023-04-01T10:20:49.657Z,99731.44
2023-04-01T10:23:28.861Z,99741.56
2023-04-01T10:26:08.187Z,99748.69
2023-04-01T10:28:53.573Z,99746.22
2023-04-01T10:32:04.060Z,99749.47
2023-04-01T10:34:57.105Z,99754.13
2023-04-01T10:37:54.037Z,99761.53
2023-04-01T10:40:29.642Z,99764.25
2023-04-01T10:43:52.444Z,99753.34
2023-04-01T10:46:54.374Z,99761.81
2023-04-01T10:49:24.017Z,99779.56
2023-04-01T10:52:30.377Z,99765.66
2023-04-01T10:55:15.475Z,99767.56
2023-04-01T10:58:23.828Z,99768.91
2023-04-01T11:02:11.609Z,99771.41
2023-04-01T11:05:22.727Z,99776.31
2023-04-01T11:08:31.699Z,99784.53
2023-04-01T11:11:01.394Z,99785.34
2023-04-01T11:13:38.880Z,99786.97
2023-04-01T11:16:45.577Z,99786.16
2023-04-01T11:19:49.040Z,99790.53
2023-04-01T11:22:55.384Z,99793.53
2023-04-01T11:25:37.001Z,99803.66
2023-04-01T11:29:01.517Z,99804.19
2023-04-01T11:31:35.604Z,99803.13
2023-04-01T11:34:21.722Z,99803.66
2023-04-01T11:37:06.398Z,99811.59
2023-04-01T11:40:11.937Z,99818.41
2023-04-01T11:43:33.007Z,99816.25
2023-04-01T11:46:26.897Z,99816.81
2023-04-01T11:49:10.454Z,99825.53
2023-04-01T11:51:43.912Z,99826.38
2023-04-01T11:54:45.766Z,99831.56
2023-04-01T11:57:18.361Z,99835.94
2023-04-01T12:00:03.307Z,99832.09
2023-04-01T12:03:04.355Z,99841.69
2023-04-01T12:05:44.078Z,99839.22
2023-04-01T12:08:35.405Z,99852.38
2023-04-01T12:11:31.661Z,99845.25
2023-04-01T12:14:10.348Z,99861.94
2023-04-01T12:16:54.158Z,99850.16
2023-04-01T12:19:53.812Z,99862.47
2023-04-01T12:22:47.054Z,99866.88
2023-04-01T12:25:35.094Z,99868.78
2023-04-01T12:28:21.292Z,99873.44
2023-04-01T12:30:52.502Z,99871.50
2023-04-01T12:33:38.794Z,99888.47
2023-04-01T12:36:37.356Z,99885.72
2023-04-01T12:39:28.136Z,99885.72
2023-04-01T12:42:16.612Z,99892.28
2023-04-01T12:44:51.066Z,99885.44
2023-04-01T12:47:28.489Z,99894.50
2023-04-01T12:50:10.836Z,99890.66
2023-04-01T12:53:13.375Z,99889.81
2023-04-01T12:55:43.531Z,99905.13
2023-04-01T12:58:24.549Z,99901.59
2023-04-01T13:01:17.163Z,99910.91
2023-04-01T13:04:05.328Z,99913.38
2023-04-01T13:07:09.388Z,99912.00
2023-04-01T13:09:56.170Z,99919.13
2023-04-01T13:12:48.959Z,99924.28
2023-04-01T13:15:27.230Z,99921.84
2023-04-01T13:17:53.716Z,99919.91
2023-04-01T13:20:54.341Z,99928.41
2023-04-01T13:23:54.675Z,99930.06
2023-04-01T13:26:39.737Z,99937.16
2023-04-01T13:29:21.892Z,99951.91
2023-04-01T13:31:57.382Z,99940.97
2023-04-01T13:34:36.251Z,99947.81
2023-04-01T13:37:17.468Z,99945.03
2023-04-01T13:40:10.121Z,99948.06
2023-04-01T13:42:55.500Z,99949.41
2023-04-01T13:45:54.265Z,99957.13
2023-04-01T13:49:09.794Z,99957.66
2023-04-01T13:51:54.770Z,99956.56
2023-04-01T13:54:45.985Z,99957.66
2023-04-01T13:57:39.414Z,99967.47
2023-04-01T14:00:28.542Z,99963.66
2023-04-01T14:03:04.116Z,99962.53
2023-04-01T14:05:45.367Z,99969.97
2023-04-01T14:08:21.359Z,99974.31
2023-04-01T14:11:11.585Z,99974.84
2023-04-01T14:13:44.884Z,99977.03
2023-04-01T14:16:26.827Z,99982.50
2023-04-01T14:19:08.893Z,99986.38
2023-04-01T14:21:53.612Z,99977.31
2023-04-01T14:24:53.409Z,99986.94
2023-04-01T14:27:32.540Z,99995.13
2023-04-01T14:30:34.883Z,99998.16
2023-04-01T14:33:22.043Z,99998.16
2023-04-01T14:36:30.055Z,99999.00
2023-04-01T14:39:16.262Z,100008.28
2023-04-01T14:41:51.489Z,99999.84
2023-04-01T14:44:42.738Z,100016.25
2023-04-01T14:47:33.919Z,100014.66
2023-04-01T14:50:22.710Z,100010.56
2023-04-01T14:53:07.933Z,100020.91
2023-04-01T14:55:49.010Z,100019.25
2023-04-01T14:58:18.779Z,100014.88
2023-04-01T15:00:48.756Z,100029.09
2023-04-01T15:03:35.804Z,100028.31
2023-04-01T15:06:08.093Z,100031.28
2023-04-01T15:08:44.324Z,100025.81
2023-04-01T15:11:13.626Z,100032.91
2023-04-01T15:13:59.484Z,100032.94
2023-04-01T15:16:35.986Z,100043.34
2023-04-01T15:19:11.933Z,100048.28
2023-04-01T15:21:56.584Z,100047.75
2023-04-01T15:24:41.999Z,100043.59
2023-04-01T15:27:30.761Z,100057.06
2023-04-01T15:30:16.778Z,100061.16
2023-04-01T15:33:07.882Z,100063.63
2023-04-01T15:36:09.257Z,100062.53
2023-04-01T15:38:54.238Z,100071.28
2023-04-01T15:41:36.816Z,100065.53
2023-04-01T15:44:04.492Z,100065.78
2023-04-01T15:46:47.795Z,100068.78
2023-04-01T15:49:43.679Z,100077.84
2023-04-01T15:52:19.376Z,100073.97
2023-04-01T15:55:09.966Z,100074.50
2023-04-01T15:58:03.685Z,100076.97
2023-04-01T16:00:34.532Z,100081.59
2023-04-01T16:03:22.483Z,100082.44
2023-04-01T16:05:54.737Z,100092.00
2023-04-01T16:08:42.571Z,100084.34
2023-04-01T16:11:33.402Z,100084.34
2023-04-01T16:14:04.581Z,100081.06
2023-04-01T16:16:58.460Z,100091.25
2023-04-01T16:19:46.777Z,100092.13
2023-04-01T16:22:24.484Z,100095.41
2023-04-01T16:25:18.484Z,100106.63
2023-04-01T16:27:56.220Z,100105.22
2023-04-01T16:30:38.160Z,100104.66
2023-04-01T16:33:23.546Z,100113.41
2023-04-01T16:36:02.825Z,100112.03
2023-04-01T16:39:02.807Z,100116.19
2023-04-01T16:41:48.028Z,100116.72
2023-04-01T16:44:26.148Z,100127.66
2023-04-01T16:46:56.581Z,100130.94
2023-04-01T16:49:32.852Z,100140.81
2023-04-01T16:52:16.187Z,100147.41
2023-04-01T16:54:58.782Z,100152.31
2023-04-01T16:57:47.868Z,100158.09
2023-04-01T17:00:37.312Z,100165.44
2023-04-01T17:03:38.652Z,100179.25
2023-04-01T17:06:08.101Z,100178.91
2023-04-01T17:09:11.324Z,100183.63
2023-04-01T17:11:45.278Z,100188.78
2023-04-01T17:14:40.572Z,100197.34
2023-04-01T17:17:35.734Z,100202.00
2023-04-01T17:20:23.960Z,100206.59
2023-04-01T17:22:57.743Z,100212.63
2023-04-01T17:25:30.818Z,100214.78
2023-04-01T17:28:27.006Z,100224.69
2023-04-01T17:31:18.800Z,100232.06
2023-04-01T17:33:56.441Z,100243.56
2023-04-01T17:36:56.803Z,100242.19
2023-04-01T17:39:42.601Z,100253.63
2023-04-01T17:42:16.268Z,100250.91
2023-04-01T17:44:54.110Z,100261.84
2023-04-01T17:47:31.392Z,100269.53
2023-04-01T17:50:06.261Z,100271.69
2023-04-01T17:52:40.713Z,100285.38
2023-04-01T17:55:31.090Z,100289.00
2023-04-01T17:58:21.920Z,100293.09
2023-04-01T18:01:03.075Z,100301.25
2023-04-01T18:03:58.762Z,100297.94
2023-04-01T18:06:37.318Z,100304.81
2023-04-01T18:09:26.919Z,100318.22
2023-04-01T18:12:42.537Z,100323.22
2023-04-01T18:15:11.892Z,100332.97
2023-04-01T18:18:00.590Z,100332.44
2023-04-01T18:20:36.721Z,100343.88
2023-04-01T18:23:07.593Z,100349.28
2023-04-01T18:25:41.865Z,100355.88
2023-04-01T18:28:20.333Z,100359.09
2023-04-01T18:30:58.397Z,100373.66
2023-04-01T18:33:43.639Z,100381.41
2023-04-01T18:36:32.028Z,100383.50
2023-04-01T18:39:08.542Z,100384.63
2023-04-01T18:41:52.294Z,100406.16
2023-04-01T18:45:06.912Z,100406.28
2023-04-01T18:48:04.923Z,100414.13
2023-04-01T18:50:42.599Z,100422.38
2023-04-01T18:53:49.107Z,100432.28
2023-04-01T18:56:33.519Z,100441.78
2023-04-01T18:59:17.837Z,100447.50
2023-04-01T19:01:53.602Z,100459.50
2023-04-01T19:04:41.942Z,100467.72
2023-04-01T19:07:27.222Z,100459.97
2023-04-01T19:09:53.838Z,100478.41
2023-04-01T19:12:30.266Z,100488.00
2023-04-01T19:15:32.377Z,100486.41
2023-04-01T19:18:27.154Z,100496.22
2023-04-01T19:21:05.779Z,100497.56
2023-04-01T19:24:10.407Z,100509.09
2023-04-01T19:26:58.625Z,100521.13
2023-04-01T19:29:40.756Z,100523.38
2023-04-01T19:32:34.875Z,100519.13
2023-04-01T19:35:21.544Z,100536.56
2023-04-01T19:38:05.335Z,100537.06
2023-04-01T19:40:44.069Z,100539.00
2023-04-01T19:43:22.368Z,100547.69
2023-04-01T19:46:05.761Z,100541.91
2023-04-01T19:48:57.268Z,100554.06
2023-04-01T19:51:34.060Z,100558.56
2023-04-01T19:54:15.589Z,100561.00
2023-04-01T19:57:00.916Z,100570.34
2023-04-01T19:59:49.361Z,100571.34
2023-04-01T20:02:54.652Z,100581.72
2023-04-01T20:05:45.620Z,100585.19
2023-04-01T20:08:25.836Z,100600.63
2023-04-01T20:11:02.746Z,100596.88
2023-04-01T20:13:37.610Z,100606.47
2023-04-01T20:16:09.725Z,100613.09
2023-04-01T20:18:53.574Z,100616.56
2023-04-01T20:21:47.031Z,100622.63
2023-04-01T20:24:38.393Z,100633.06
2023-04-01T20:27:13.627Z,100634.66
2023-04-01T20:29:44.352Z,100636.81
2023-04-01T20:32:30.615Z,100647.06
2023-04-01T20:35:12.595Z,100650.81
2023-04-01T20:37:52.127Z,100657.75
2023-04-01T20:40:34.073Z,100663.97
2023-04-01T20:43:19.048Z,100674.41
2023-04-01T20:46:00.040Z,100672.25
2023-04-01T20:48:51.042Z,100683.38
2023-04-01T20:51:35.638Z,100684.00
2023-04-01T20:54:23.977Z,100686.69
2023-04-01T20:57:09.389Z,100691.97
2023-04-01T21:00:14.882Z,100699.69
2023-04-01T21:03:21.377Z,100702.66
2023-04-01T21:06:15.930Z,100715.06
2023-04-01T21:08:51.711Z,100714.47
2023-04-01T21:11:30.352Z,100730.63
2023-04-01T21:14:11.636Z,100732.03
2023-04-01T21:16:58.830Z,100740.50
2023-04-01T21:19:45.729Z,100750.44
2023-04-01T21:22:34.109Z,100753.09
2023-04-01T21:25:26.596Z,100768.69
2023-04-01T21:28:23.190Z,100767.66
2023-04-01T21:31:14.042Z,100782.72
2023-04-01T21:34:02.414Z,100783.38
2023-04-01T21:36:41.793Z,100781.91
2023-04-01T21:39:20.242Z,100789.16
2023-04-01T21:42:05.575Z,100799.84
2023-04-01T21:44:56.957Z,100794.25
2023-04-01T21:47:42.154Z,100812.53
2023-04-01T21:50:23.680Z,100816.72
2023-04-01T21:52:53.143Z,100817.06
2023-04-01T21:55:38.219Z,100818.28
2023-04-01T21:58:37.628Z,100828.41
2023-04-01T22:01:19.462Z,100833.84
2023-04-01T22:03:58.324Z,100839.91
2023-04-01T22:07:13.812Z,100848.31
2023-04-01T22:09:48.194Z,100857.47
2023-04-01T22:12:24.081Z,100864.97
2023-04-01T22:15:03.893Z,100867.47
2023-04-01T22:17:42.728Z,100869.84
2023-04-01T22:20:15.064Z,100877.22
2023-04-01T22:23:08.692Z,100884.69
2023-04-01T22:25:53.594Z,100888.22
2023-04-01T22:28:25.077Z,100889.91
2023-04-01T22:31:02.078Z,100893.22
2023-04-01T22:33:44.064Z,100894.03
2023-04-01T22:36:22.757Z,100904.50
2023-04-01T22:38:58.611Z,100908.31
2023-04-01T22:41:52.571Z,100905.56
2023-04-01T22:44:42.675Z,100916.38
2023-04-01T22:47:32.158Z,100923.50
2023-04-01T22:50:27.031Z,100919.22
2023-04-01T22:53:10.721Z,100928.94
2023-04-01T22:55:53.098Z,100926.00
2023-04-01T22:58:33.665Z,100943.66
2023-04-01T23:01:07.196Z,100945.31
2023-04-01T23:03:41.688Z,100941.59
2023-04-01T23:06:18.298Z,100957.28
2023-04-01T23:08:47.728Z,100961.53
2023-04-01T23:11:19.475Z,100960.25
2023-04-01T23:13:53.648Z,100966.19
2023-04-01T23:16:31.426Z,100965.38
2023-04-01T23:19:17.289Z,100976.66
2023-04-01T23:22:13.982Z,100973.34
2023-04-01T23:24:54.272Z,100986.88
2023-04-01T23:27:41.624Z,100986.44
2023-04-01T23:30:39.340Z,100992.81
2023-04-01T23:33:22.800Z,100993.16
2023-04-01T23:36:06.746Z,101002.16
2023-04-01T23:38:42.487Z,101011.06
2023-04-01T23:41:18.665Z,101017.47
2023-04-01T23:43:50.166Z,101019.47
2023-04-01T23:46:17.043Z,101027.03
2023-04-01T23:48:46.957Z,101034.50
2023-04-01T23:51:27.239Z,101034.63
2023-04-01T23:54:02.158Z,101045.66
2023-04-01T23:56:40.376Z,101051.47
2023-04-01T23:59:17.911Z,101053.00
